createdAt,value
2019-01-12T00:01:22.652Z,5.38
2019-01-12T00:03:53.757Z,5.40
2019-01-12T00:06:27.785Z,5.34
2019-01-12T00:08:58.934Z,5.33
2019-01-12T00:11:31.062Z,5.33
2019-01-12T00:14:01.897Z,5.31
2019-01-12T00:16:32.774Z,5.41
2019-01-12T00:19:03.599Z,5.37
2019-01-12T00:21:34.412Z,5.38
2019-01-12T00:24:05.209Z,5.40
2019-01-12T00:26:36.037Z,5.46
2019-01-12T00:29:06.812Z,5.47
2019-01-12T00:31:37.641Z,5.46
2019-01-12T00:34:08.477Z,5.38
2019-01-12T00:36:39.305Z,5.42
2019-01-12T00:39:10.357Z,5.46
2019-01-12T00:41:41.133Z,5.47
2019-01-12T00:44:12.015Z,5.42
2019-01-12T00:46:42.794Z,5.37
2019-01-12T00:49:13.553Z,5.45
2019-01-12T00:51:44.341Z,5.40
2019-01-12T00:54:15.147Z,5.40
2019-01-12T00:56:45.874Z,5.44
2019-01-12T00:59:16.624Z,5.43
2019-01-12T01:01:47.453Z,5.40
2019-01-12T01:04:18.265Z,5.41
2019-01-12T01:06:49.073Z,5.44
2019-01-12T01:09:19.841Z,5.47
2019-01-12T01:11:50.671Z,5.47
2019-01-12T01:14:21.431Z,5.44
2019-01-12T01:16:52.247Z,5.46
2019-01-12T01:19:23.061Z,5.51
2019-01-12T01:21:54.145Z,5.53
2019-01-12T01:24:24.961Z,5.60
2019-01-12T01:26:55.729Z,5.52
2019-01-12T01:29:26.499Z,5.48
2019-01-12T01:31:57.267Z,5.53
2019-01-12T01:34:28.076Z,5.51
2019-01-12T01:36:58.905Z,5.51
2019-01-12T01:39:29.669Z,5.54
2019-01-12T01:42:00.469Z,5.58
2019-01-12T01:44:31.284Z,5.61
2019-01-12T01:47:02.151Z,5.63
2019-01-12T01:49:32.916Z,5.54
2019-01-12T01:52:03.729Z,5.43
2019-01-12T01:54:34.549Z,5.39
2019-01-12T01:57:05.384Z,5.55
2019-01-12T01:59:36.124Z,5.47
2019-01-12T02:02:06.889Z,5.55
2019-01-12T02:04:37.645Z,5.58
2019-01-12T02:07:08.484Z,5.64
2019-01-12T02:09:39.268Z,5.47
2019-01-12T02:12:10.058Z,5.48
2019-01-12T02:14:40.901Z,5.43
2019-01-12T02:17:11.708Z,5.47
2019-01-12T02:19:42.528Z,5.44
2019-01-12T02:22:13.295Z,5.43
2019-01-12T02:24:44.087Z,5.41
2019-01-12T02:27:14.886Z,5.41
2019-01-12T02:29:45.660Z,5.41
2019-01-12T02:32:16.462Z,5.49
2019-01-12T02:34:47.276Z,5.49
2019-01-12T02:37:18.002Z,5.53
2019-01-12T02:39:48.827Z,5.47
2019-01-12T02:42:19.548Z,5.41
2019-01-12T02:44:50.350Z,5.49
2019-01-12T02:47:21.211Z,5.41
2019-01-12T02:50:05.372Z,5.36
2019-01-12T02:52:36.146Z,5.40
2019-01-12T02:55:09.011Z,5.40
2019-01-12T02:57:40.043Z,5.45
2019-01-12T03:00:19.312Z,5.45
2019-01-12T03:02:54.576Z,5.46
2019-01-12T03:05:25.368Z,5.44
2019-01-12T03:07:56.274Z,5.45
2019-01-12T03:10:27.184Z,5.44
2019-01-12T03:12:57.980Z,5.38
2019-01-12T03:15:30.568Z,5.39
2019-01-12T03:18:01.460Z,5.30
2019-01-12T03:20:34.448Z,5.30
2019-01-12T03:23:05.910Z,5.30
2019-01-12T03:25:37.971Z,5.34
2019-01-12T03:28:10.420Z,5.39
2019-01-12T03:30:41.217Z,5.36
2019-01-12T03:33:12.143Z,5.34
2019-01-12T03:35:43.024Z,5.34
2019-01-12T03:38:16.402Z,5.34
2019-01-12T03:40:48.376Z,5.31
2019-01-12T03:43:21.572Z,5.31
2019-01-12T03:45:55.001Z,5.44
2019-01-12T03:48:28.069Z,5.42
2019-01-12T03:50:58.872Z,5.33
2019-01-12T03:53:31.092Z,5.31
2019-01-12T03:56:01.843Z,5.33
2019-01-12T03:58:34.712Z,5.24
2019-01-12T04:01:08.575Z,5.22
2019-01-12T04:03:39.410Z,5.19
2019-01-12T04:06:10.285Z,5.20
2019-01-12T04:08:41.111Z,5.18
2019-01-12T04:11:11.896Z,5.19
2019-01-12T04:13:45.425Z,5.11
2019-01-12T04:16:16.200Z,5.21
2019-01-12T04:18:47.057Z,5.17
2019-01-12T04:21:17.825Z,5.16
2019-01-12T04:23:48.595Z,5.19
2019-01-12T04:26:19.356Z,5.12
2019-01-12T04:28:50.160Z,5.07
2019-01-12T04:31:20.918Z,5.12
2019-01-12T04:33:51.727Z,5.06
2019-01-12T04:36:22.479Z,5.17
2019-01-12T04:38:53.279Z,5.12
2019-01-12T04:41:24.014Z,5.12
2019-01-12T04:43:54.843Z,5.13
2019-01-12T04:46:25.596Z,5.07
2019-01-12T04:48:56.351Z,5.05
2019-01-12T04:51:27.154Z,5.05
2019-01-12T04:53:57.954Z,5.01
2019-01-12T04:56:28.674Z,5.04
2019-01-12T04:58:59.477Z,5.09
2019-01-12T05:01:30.317Z,5.05
2019-01-12T05:04:01.125Z,5.09
2019-01-12T05:06:31.912Z,5.08
2019-01-12T05:09:03.187Z,4.96
2019-01-12T05:11:33.959Z,4.84
2019-01-12T05:14:04.764Z,4.90
2019-01-12T05:16:35.559Z,4.82
2019-01-12T05:19:06.381Z,4.86
2019-01-12T05:21:37.223Z,4.76
2019-01-12T05:24:08.035Z,4.78
2019-01-12T05:26:38.795Z,4.71
2019-01-12T05:29:09.567Z,4.66
2019-01-12T05:31:40.442Z,4.59
2019-01-12T05:34:11.181Z,4.72
2019-01-12T05:36:41.973Z,4.76
2019-01-12T05:39:12.778Z,4.69
2019-01-12T05:41:43.671Z,4.80
2019-01-12T05:44:14.454Z,4.79
2019-01-12T05:46:45.259Z,4.69
2019-01-12T05:49:16.012Z,4.94
2019-01-12T05:51:47.711Z,4.92
2019-01-12T05:54:18.498Z,4.77
2019-01-12T05:56:49.299Z,4.70
2019-01-12T05:59:20.083Z,4.71
2019-01-12T06:01:50.866Z,4.88
2019-01-12T06:04:21.660Z,4.84
2019-01-12T06:06:52.474Z,4.72
2019-01-12T06:09:23.350Z,4.78
2019-01-12T06:11:54.096Z,4.85
2019-01-12T06:14:24.933Z,4.78
2019-01-12T06:16:55.762Z,4.78
2019-01-12T06:19:26.582Z,4.76
2019-01-12T06:21:57.285Z,4.66
2019-01-12T06:24:28.130Z,4.74
2019-01-12T06:26:58.865Z,4.76
2019-01-12T06:29:29.634Z,4.72
2019-01-12T06:32:00.442Z,4.83
2019-01-12T06:34:31.303Z,4.77
2019-01-12T06:37:02.156Z,4.85
2019-01-12T06:39:33.094Z,4.83
2019-01-12T06:42:03.878Z,4.71
2019-01-12T06:44:34.712Z,4.86
2019-01-12T06:47:05.614Z,4.90
2019-01-12T06:49:36.389Z,4.79
2019-01-12T06:52:07.132Z,4.79
2019-01-12T06:54:37.972Z,4.78
2019-01-12T06:57:08.730Z,4.90
2019-01-12T06:59:39.559Z,4.98
2019-01-12T07:02:10.392Z,4.86
2019-01-12T07:04:41.245Z,4.87
2019-01-12T07:07:12.103Z,4.94
2019-01-12T07:09:42.825Z,4.89
2019-01-12T07:12:13.671Z,4.86
2019-01-12T07:14:44.515Z,4.88
2019-01-12T07:17:15.370Z,4.90
2019-01-12T07:19:46.278Z,4.95
2019-01-12T07:22:17.059Z,4.85
2019-01-12T07:24:47.871Z,4.97
2019-01-12T07:27:19.929Z,5.05
2019-01-12T07:29:50.778Z,4.96
2019-01-12T07:32:21.641Z,5.05
2019-01-12T07:34:52.505Z,5.09
2019-01-12T07:37:23.277Z,5.13
2019-01-12T07:39:54.189Z,5.16
2019-01-12T07:42:25.072Z,5.18
2019-01-12T07:44:56.127Z,5.14
2019-01-12T07:47:26.944Z,5.14
2019-01-12T07:49:57.752Z,5.13
2019-01-12T07:52:28.633Z,5.19
2019-01-12T07:54:59.441Z,5.19
2019-01-12T07:57:30.282Z,4.78
2019-01-12T08:00:02.013Z,5.17
2019-01-12T08:02:33.209Z,5.14
2019-01-12T08:05:04.276Z,5.24
2019-01-12T08:07:35.248Z,5.27
2019-01-12T08:10:09.677Z,5.34
2019-01-12T08:12:40.501Z,5.32
2019-01-12T08:15:11.605Z,5.45
2019-01-12T08:17:42.562Z,5.46
2019-01-12T08:20:13.800Z,5.51
2019-01-12T08:22:44.605Z,5.60
2019-01-12T08:25:15.771Z,5.69
2019-01-12T08:27:46.586Z,5.74
2019-01-12T08:30:19.554Z,5.85
2019-01-12T08:32:50.521Z,5.90
2019-01-12T08:35:21.369Z,6.04
2019-01-12T08:37:52.291Z,6.02
2019-01-12T08:40:23.113Z,6.10
2019-01-12T08:42:53.910Z,6.12
2019-01-12T08:45:24.719Z,6.15
2019-01-12T08:47:55.543Z,6.30
2019-01-12T08:50:26.302Z,6.32
2019-01-12T08:52:57.099Z,6.37
2019-01-12T08:55:27.929Z,6.43
2019-01-12T08:57:58.721Z,6.48
2019-01-12T09:00:29.545Z,6.57
2019-01-12T09:03:00.719Z,6.70
2019-01-12T09:05:32.051Z,6.68
2019-01-12T09:08:03.206Z,6.76
2019-01-12T09:10:34.506Z,6.77
2019-01-12T09:13:05.815Z,6.74
2019-01-12T09:15:38.735Z,6.66
2019-01-12T09:18:12.570Z,6.63
2019-01-12T09:20:45.302Z,6.74
2019-01-12T09:23:16.332Z,6.81
2019-01-12T09:25:48.738Z,6.81
2019-01-12T09:28:19.729Z,6.80
2019-01-12T09:30:51.043Z,6.88
2019-01-12T09:33:25.610Z,6.97
2019-01-12T09:35:56.497Z,6.99
2019-01-12T09:38:27.345Z,6.81
2019-01-12T09:40:58.214Z,6.74
2019-01-12T09:43:29.164Z,6.72
2019-01-12T09:46:00.011Z,6.69
2019-01-12T09:48:30.960Z,6.64
2019-01-12T09:51:01.804Z,6.77
2019-01-12T09:53:32.578Z,6.74
2019-01-12T09:56:03.451Z,6.72
2019-01-12T09:58:34.257Z,6.71
2019-01-12T10:01:05.274Z,6.65
2019-01-12T10:03:36.419Z,6.61
2019-01-12T10:06:07.567Z,6.63
2019-01-12T10:08:38.441Z,6.64
2019-01-12T10:11:09.344Z,6.65
2019-01-12T10:13:40.320Z,6.79
2019-01-12T10:16:11.051Z,6.72
2019-01-12T10:18:41.940Z,6.75
2019-01-12T10:21:12.824Z,6.75
2019-01-12T10:23:43.759Z,6.76
2019-01-12T10:26:14.578Z,6.88
2019-01-12T10:28:45.401Z,7.00
2019-01-12T10:31:16.229Z,7.00
2019-01-12T10:33:47.193Z,6.86
2019-01-12T10:36:18.356Z,6.75
2019-01-12T10:38:49.268Z,6.73
2019-01-12T10:41:20.072Z,6.94
2019-01-12T10:43:50.958Z,6.98
2019-01-12T10:46:21.828Z,7.03
2019-01-12T10:48:52.731Z,7.15
2019-01-12T10:51:23.616Z,7.09
2019-01-12T10:53:54.480Z,7.18
2019-01-12T10:56:25.353Z,7.34
2019-01-12T10:58:57.201Z,7.20
2019-01-12T11:01:28.187Z,7.37
2019-01-12T11:03:59.011Z,7.44
2019-01-12T11:06:29.978Z,7.48
2019-01-12T11:09:00.781Z,7.56
2019-01-12T11:11:32.867Z,7.54
2019-01-12T11:14:04.210Z,7.64
2019-01-12T11:16:38.081Z,7.54
2019-01-12T11:19:09.094Z,7.48
2019-01-12T11:21:40.122Z,7.53
2019-01-12T11:24:11.184Z,7.56
2019-01-12T11:26:42.449Z,7.57
2019-01-12T11:29:13.558Z,7.67
2019-01-12T11:31:44.876Z,7.58
2019-01-12T11:34:15.652Z,7.51
2019-01-12T11:36:46.514Z,7.48
2019-01-12T12:20:30.128Z,7.61
2019-01-12T12:23:01.102Z,7.56
2019-01-12T12:25:35.380Z,7.48
2019-01-12T12:28:06.477Z,7.41
2019-01-12T12:30:37.703Z,7.29
2019-01-12T12:33:08.948Z,7.15
2019-01-12T12:35:42.083Z,7.31
2019-01-12T12:38:14.503Z,7.42
2019-01-12T12:40:48.963Z,7.50
2019-01-12T12:43:20.342Z,7.61
2019-01-12T12:45:56.181Z,7.75
2019-01-12T12:48:30.912Z,7.71
2019-01-12T12:51:38.952Z,7.63
2019-01-12T12:53:47.457Z,7.66
2019-01-12T12:56:20.594Z,7.47
2019-01-12T12:58:52.763Z,7.58
2019-01-12T13:01:25.002Z,7.64
2019-01-12T13:03:57.162Z,7.62
2019-01-12T13:06:31.382Z,7.82
2019-01-12T13:09:02.311Z,7.94
2019-01-12T13:11:33.143Z,8.07
2019-01-12T13:14:10.136Z,7.91
2019-01-12T13:16:40.913Z,7.85
2019-01-12T13:19:12.431Z,7.90
2019-01-12T13:21:45.946Z,7.90
2019-01-12T13:24:15.905Z,7.99
2019-01-12T13:26:46.908Z,7.97
2019-01-12T13:29:17.859Z,7.75
2019-01-12T13:31:48.689Z,7.67
2019-01-12T13:34:27.231Z,7.50
2019-01-12T13:36:58.264Z,7.48
2019-01-12T13:39:32.105Z,7.65
2019-01-12T13:42:01.951Z,7.46
2019-01-12T13:44:32.797Z,7.43
2019-01-12T13:47:03.860Z,7.45
2019-01-12T13:49:34.883Z,7.45
2019-01-12T13:52:09.284Z,7.45
2019-01-12T13:54:42.273Z,7.46
2019-01-12T13:57:13.646Z,7.39
2019-01-12T13:59:48.403Z,7.31
2019-01-12T14:02:21.670Z,7.20
2019-01-12T14:04:54.187Z,6.99
2019-01-12T14:07:27.644Z,6.86
2019-01-12T14:10:00.479Z,6.77
2019-01-12T14:12:34.549Z,6.73
2019-01-12T14:15:13.951Z,6.78
2019-01-12T14:17:50.065Z,6.68
2019-01-12T14:20:36.815Z,6.51
2019-01-12T14:23:14.347Z,6.68
2019-01-12T14:25:50.892Z,6.66
2019-01-12T14:28:29.774Z,6.70
2019-01-12T14:31:09.646Z,6.66
2019-01-12T14:33:46.640Z,6.51
2019-01-12T14:36:23.125Z,6.50
2019-01-12T14:38:59.439Z,6.61
2019-01-12T14:41:33.996Z,6.51
2019-01-12T14:44:17.219Z,6.54
2019-01-12T14:46:55.847Z,6.42
2019-01-12T14:49:33.150Z,6.30
2019-01-12T14:52:07.747Z,6.27
2019-01-12T14:54:43.608Z,6.31
2019-01-12T14:57:19.074Z,6.17
2019-01-12T14:59:55.534Z,6.27
2019-01-12T15:02:34.038Z,6.22
2019-01-12T15:05:13.079Z,6.17
2019-01-12T15:07:49.971Z,6.24
2019-01-12T15:10:33.907Z,6.24
2019-01-12T15:13:44.377Z,6.16
2019-01-12T15:16:18.014Z,5.99
2019-01-12T15:18:56.626Z,6.08
2019-01-12T15:21:33.638Z,6.14
2019-01-12T15:24:12.061Z,6.02
2019-01-12T15:26:45.086Z,6.09
2019-01-12T15:29:21.719Z,6.02
2019-01-12T15:31:56.995Z,6.20
2019-01-12T15:34:32.481Z,6.13
2019-01-12T15:37:11.510Z,6.00
2019-01-12T15:39:42.442Z,5.95
2019-01-12T15:42:14.318Z,5.94
2019-01-12T15:44:45.570Z,5.97
2019-01-12T15:47:16.875Z,5.85
2019-01-12T15:49:48.956Z,5.86
2019-01-12T15:52:20.066Z,5.83
2019-01-12T15:54:51.386Z,5.74
2019-01-12T15:57:33.145Z,5.66
2019-01-12T16:00:04.260Z,5.63
2019-01-12T16:02:39.832Z,5.59
2019-01-12T16:05:10.102Z,5.62
2019-01-12T16:07:44.502Z,5.60
2019-01-12T16:10:23.195Z,5.57
2019-01-12T16:12:54.730Z,5.48
2019-01-12T16:15:30.140Z,5.49
2019-01-12T16:18:02.477Z,5.34
2019-01-12T16:20:43.150Z,5.34
2019-01-12T16:23:18.685Z,5.26
2019-01-12T16:25:51.540Z,5.13
2019-01-12T16:28:23.437Z,5.14
2019-01-12T16:31:19.585Z,5.14
2019-01-12T16:33:38.276Z,5.05
2019-01-12T16:36:09.279Z,5.19
2019-01-12T16:38:40.234Z,5.24
2019-01-12T16:41:16.853Z,5.11
2019-01-12T16:43:48.222Z,5.16
2019-01-12T16:46:20.906Z,5.14
2019-01-12T16:48:51.822Z,5.13
2019-01-12T16:51:23.054Z,5.16
2019-01-12T16:53:54.072Z,5.10
2019-01-12T16:56:26.939Z,5.07
2019-01-12T16:58:57.757Z,5.12
2019-01-12T17:01:28.761Z,5.10
2019-01-12T17:03:59.945Z,5.18
2019-01-12T17:06:32.857Z,5.16
2019-01-12T17:09:05.823Z,5.13
2019-01-12T17:11:36.980Z,5.03
2019-01-12T17:14:08.748Z,5.01
2019-01-12T17:16:43.371Z,4.92
2019-01-12T17:19:14.462Z,4.98
2019-01-12T17:21:46.785Z,5.16
2019-01-12T17:24:19.665Z,4.98
2019-01-12T17:32:45.431Z,5.01
2019-01-12T17:55:41.360Z,4.76
2019-01-12T17:58:15.173Z,4.73
2019-01-12T18:00:51.739Z,4.68
2019-01-12T18:03:25.080Z,4.75
2019-01-12T18:06:02.511Z,4.66
2019-01-12T18:08:44.475Z,4.55
2019-01-12T18:11:25.424Z,4.53
2019-01-12T18:14:05.793Z,4.56
2019-01-12T18:16:45.149Z,4.62
2019-01-12T18:19:25.604Z,4.60
2019-01-12T18:22:05.634Z,4.54
2019-01-12T18:24:46.041Z,4.55
2019-01-12T18:27:27.936Z,4.49
2019-01-12T18:30:09.589Z,4.52
2019-01-12T18:32:53.336Z,4.54
2019-01-12T18:35:32.173Z,4.54
2019-01-12T18:38:13.435Z,4.76
2019-01-12T18:40:56.129Z,4.68
2019-01-12T18:43:38.045Z,4.71
2019-01-12T18:46:20.793Z,4.74
2019-01-12T18:49:01.954Z,4.71
2019-01-12T18:51:40.049Z,4.75
2019-01-12T18:54:20.757Z,4.78
2019-01-12T18:57:02.251Z,4.89
2019-01-12T18:59:42.317Z,4.85
2019-01-12T19:02:13.326Z,4.84
2019-01-12T19:04:44.224Z,4.93
2019-01-12T19:07:15.164Z,5.02
2019-01-12T19:09:46.031Z,4.93
2019-01-12T19:12:18.906Z,5.02
2019-01-12T19:14:49.828Z,5.11
2019-01-12T19:17:20.708Z,5.12
2019-01-12T19:19:51.728Z,5.09
2019-01-12T19:22:22.815Z,5.13
2019-01-12T19:24:53.722Z,5.25
2019-01-12T19:27:24.914Z,5.38
2019-01-12T19:29:59.465Z,5.49
2019-01-12T19:32:39.015Z,5.63
2019-01-12T19:35:14.470Z,5.58
2019-01-12T19:37:46.545Z,5.53
2019-01-12T19:40:26.827Z,5.52
2019-01-12T19:42:58.834Z,5.63
2019-01-12T19:45:30.700Z,5.64
2019-01-12T19:48:01.837Z,5.48
2019-01-12T19:50:33.190Z,5.66
2019-01-12T19:53:04.476Z,5.63
2019-01-12T19:55:35.411Z,5.76
2019-01-12T19:58:06.951Z,5.72
2019-01-12T20:00:40.877Z,5.73
2019-01-12T20:03:12.032Z,5.69
2019-01-12T20:05:42.948Z,5.73
2019-01-12T20:08:14.252Z,5.71
2019-01-12T20:10:45.563Z,5.61
2019-01-12T20:13:16.522Z,5.76
2019-01-12T20:15:47.940Z,5.73
2019-01-12T20:18:19.190Z,5.64
2019-01-12T20:20:50.442Z,5.84
2019-01-12T20:23:22.755Z,5.81
2019-01-12T20:25:54.033Z,5.72
2019-01-12T20:28:26.928Z,5.83
2019-01-12T20:31:41.521Z,5.81
2019-01-12T20:34:41.495Z,5.82
2019-01-12T20:38:20.296Z,5.84
2019-01-12T20:41:27.406Z,5.72
2019-01-12T20:45:05.698Z,5.77
2019-01-12T20:48:36.887Z,5.81
2019-01-12T20:52:04.172Z,5.77
2019-01-12T20:55:35.736Z,5.81
2019-01-12T20:59:05.953Z,5.76
2019-01-12T21:02:23.038Z,5.77
2019-01-12T21:05:43.816Z,5.82
2019-01-12T21:08:56.113Z,5.84
2019-01-12T21:12:29.873Z,5.78
2019-01-12T21:15:19.889Z,5.72
2019-01-12T21:17:50.807Z,5.80
2019-01-12T21:20:21.934Z,5.85
2019-01-12T21:22:53.047Z,5.79
2019-01-12T21:25:24.377Z,5.83
2019-01-12T21:27:55.793Z,5.78
2019-01-12T21:30:27.041Z,5.74
2019-01-12T21:32:57.913Z,5.82
2019-01-12T21:35:28.999Z,5.89
2019-01-12T21:38:00.291Z,5.80
2019-01-12T21:40:31.525Z,5.83
2019-01-12T21:43:02.923Z,5.81
2019-01-12T21:45:38.555Z,5.70
2019-01-12T21:48:07.139Z,5.89
2019-01-12T21:50:38.127Z,5.82
2019-01-12T21:53:08.996Z,5.82
2019-01-12T21:55:39.831Z,5.83
2019-01-12T21:58:10.720Z,5.74
2019-01-12T22:00:41.805Z,5.79
2019-01-12T22:03:12.811Z,5.73
2019-01-12T22:05:43.811Z,5.77
2019-01-12T22:08:15.117Z,5.82
2019-01-12T22:10:46.222Z,5.76
2019-01-12T22:13:18.683Z,5.90
2019-01-12T22:15:50.791Z,5.89
2019-01-12T22:18:26.974Z,5.93
2019-01-12T22:21:26.226Z,5.95
2019-01-12T22:23:57.299Z,5.86
2019-01-12T22:26:28.182Z,5.73
2019-01-12T22:28:59.049Z,5.74
2019-01-12T22:31:29.978Z,5.76
2019-01-12T22:34:01.247Z,5.78
2019-01-12T22:36:32.262Z,5.72
2019-01-12T22:39:03.439Z,5.75
2019-01-12T22:41:34.517Z,5.69
2019-01-12T22:44:05.613Z,5.68
2019-01-12T22:46:36.772Z,5.68
2019-01-12T22:49:07.568Z,5.74
2019-01-12T22:51:38.405Z,5.72
2019-01-12T22:54:09.222Z,5.78
2019-01-12T22:56:39.984Z,5.83
2019-01-12T22:59:11.126Z,5.88
2019-01-12T23:01:58.853Z,5.83
2019-01-12T23:04:31.283Z,5.92
2019-01-12T23:07:02.114Z,5.69
2019-01-12T23:09:33.008Z,5.66
2019-01-12T23:12:03.914Z,5.68
2019-01-12T23:14:35.062Z,5.80
2019-01-12T23:17:06.144Z,5.86
2019-01-12T23:19:37.088Z,5.80
2019-01-12T23:22:07.961Z,5.85
2019-01-12T23:24:38.736Z,5.91
2019-01-12T23:27:09.530Z,5.87
2019-01-12T23:29:40.361Z,5.84
2019-01-12T23:32:11.071Z,6.06
2019-01-12T23:34:41.900Z,5.91
2019-01-12T23:37:12.664Z,5.97
2019-01-12T23:39:43.436Z,5.84
2019-01-12T23:42:14.764Z,5.91
2019-01-12T23:44:45.521Z,5.79
2019-01-12T23:47:16.321Z,5.73
2019-01-12T23:49:47.112Z,5.71
2019-01-12T23:52:18.030Z,5.63
2019-01-12T23:54:48.798Z,5.68
2019-01-12T23:57:19.607Z,5.67
2019-01-12T23:59:50.370Z,5.68
